Time;durP1;ratioP1;P1;durP2;ratioP2;P2;SDS_P1;SDS_P2;PMS_P1;PMS_P2;Temp;Humidity;BMP_temperature;BMP_pressure;BME280_temperature;BME280_humidity;BME280_pressure;Samples;Min_cycle;Max_cycle;Signal;HPM_P1;HPM_P2
2021/12/12 00:02:24;;;;;;;19.08;5.15;;;;;;;;;;4850104;29;20030;-77
2021/12/12 00:04:53;;;;;;;19.80;5.10;;;;;;;;;;4850219;29;20099;-77
2021/12/12 00:07:21;;;;;;;16.05;5.25;;;;;;;;;;4849858;29;20494;-77
2021/12/12 00:09:49;;;;;;;16.08;4.82;;;;;;;;;;4833439;29;20501;-77
2021/12/12 00:12:22;;;;;;;14.30;4.82;;;;;;;;;;4848735;29;20048;-77
2021/12/12 00:14:48;;;;;;;15.75;4.22;;;;;;;;;;4850934;29;20049;-77
2021/12/12 00:17:14;;;;;;;24.48;5.85;;;;;;;;;;4848210;29;20057;-77
2021/12/12 00:19:40;;;;;;;14.23;4.03;;;;;;;;;;4834968;29;20395;-78
2021/12/12 00:22:09;;;;;;;26.40;4.20;;;;;;;;;;4849557;29;20037;-77
2021/12/12 00:24:36;;;;;;;14.38;3.75;;;;;;;;;;4850057;29;20121;-77
2021/12/12 00:27:02;;;;;;;16.38;5.03;;;;;;;;;;4848028;29;20029;-77
2021/12/12 00:29:28;;;;;;;16.77;4.55;;;;;;;;;;4842041;29;20082;-77
2021/12/12 00:32:00;;;;;;;16.63;5.32;;;;;;;;;;4833226;29;20037;-77
2021/12/12 00:34:28;;;;;;;18.27;5.28;;;;;;;;;;4859930;29;20032;-77
2021/12/12 00:36:55;;;;;;;13.35;4.57;;;;;;;;;;4859708;29;20482;-77
2021/12/12 00:39:23;;;;;;;13.15;3.92;;;;;;;;;;4859605;29;20081;-77
2021/12/12 00:41:52;;;;;;;11.32;4.03;;;;;;;;;;4843607;29;20052;-78
2021/12/12 00:44:19;;;;;;;18.63;4.03;;;;;;;;;;4843112;29;20029;-77
2021/12/12 00:46:45;;;;;;;10.77;3.28;;;;;;;;;;4859576;29;20037;-78
2021/12/12 00:49:12;;;;;;;14.18;3.58;;;;;;;;;;4859834;29;20136;-77
2021/12/12 00:51:40;;;;;;;14.00;4.38;;;;;;;;;;4858973;29;20064;-77
2021/12/12 00:54:07;;;;;;;18.75;3.75;;;;;;;;;;4843687;29;20036;-77
2021/12/12 00:56:33;;;;;;;10.38;3.70;;;;;;;;;;4858378;29;20068;-77
2021/12/12 00:58:59;;;;;;;10.77;3.65;;;;;;;;;;4859495;29;20029;-77
2021/12/12 01:01:28;;;;;;;8.15;3.50;;;;;;;;;;4859269;29;20053;-77
2021/12/12 01:03:58;;;;;;;17.42;3.95;;;;;;;;;;4860114;29;20068;-77
2021/12/12 01:06:25;;;;;;;12.20;3.50;;;;;;;;;;4859596;29;20494;-77
2021/12/12 01:08:51;;;;;;;14.00;3.75;;;;;;;;;;4859458;29;20162;-78
2021/12/12 01:11:20;;;;;;;15.88;4.18;;;;;;;;;;4863120;29;20120;-77
2021/12/12 01:13:47;;;;;;;11.85;3.08;;;;;;;;;;4863834;29;20068;-77
2021/12/12 01:16:24;;;;;;;14.82;3.45;;;;;;;;;;4862843;29;20037;-77
2021/12/12 01:18:53;;;;;;;17.40;3.92;;;;;;;;;;4863218;29;20018;-77
2021/12/12 01:21:24;;;;;;;14.48;4.15;;;;;;;;;;4846466;29;20037;-77
2021/12/12 01:23:50;;;;;;;11.27;2.95;;;;;;;;;;4863560;29;20566;-77
2021/12/12 01:26:16;;;;;;;16.52;4.05;;;;;;;;;;4863327;29;20041;-77
2021/12/12 01:28:43;;;;;;;12.77;3.90;;;;;;;;;;4862417;29;20029;-77
2021/12/12 01:31:12;;;;;;;15.00;3.80;;;;;;;;;;4854871;29;20101;-77
2021/12/12 01:33:38;;;;;;;15.93;3.70;;;;;;;;;;4846101;29;20026;-77
2021/12/12 01:36:25;;;;;;;19.05;3.55;;;;;;;;;;4862935;29;20040;-77
2021/12/12 01:38:56;;;;;;;13.65;3.60;;;;;;;;;;4863384;29;20454;-77
2021/12/12 01:41:31;;;;;;;16.30;3.55;;;;;;;;;;4862745;29;20037;-77
2021/12/12 01:44:02;;;;;;;20.92;4.72;;;;;;;;;;4862605;29;20391;-77
2021/12/12 01:46:30;;;;;;;15.32;4.63;;;;;;;;;;4845941;29;20490;-77
2021/12/12 01:49:08;;;;;;;14.80;5.45;;;;;;;;;;4862914;29;20037;-77
2021/12/12 01:51:35;;;;;;;24.65;5.13;;;;;;;;;;4862459;29;20114;-77
2021/12/12 01:54:06;;;;;;;25.02;5.00;;;;;;;;;;4862815;29;20436;-77
2021/12/12 01:56:34;;;;;;;22.35;4.25;;;;;;;;;;4862562;29;20467;-77
2021/12/12 01:59:02;;;;;;;16.42;4.78;;;;;;;;;;4862319;29;20029;-77
2021/12/12 02:01:51;;;;;;;15.93;4.53;;;;;;;;;;4862428;29;20113;-77
2021/12/12 02:04:23;;;;;;;16.88;4.35;;;;;;;;;;4853197;29;20573;-77
2021/12/12 02:06:50;;;;;;;12.50;4.63;;;;;;;;;;4845433;29;20490;-77
2021/12/12 02:09:17;;;;;;;24.80;5.53;;;;;;;;;;4862429;29;20026;-77
2021/12/12 02:11:46;;;;;;;21.77;5.30;;;;;;;;;;4862251;29;20123;-77
2021/12/12 02:14:14;;;;;;;19.77;4.90;;;;;;;;;;4845651;29;20448;-77
2021/12/12 02:16:45;;;;;;;16.65;4.35;;;;;;;;;;4861894;29;20459;-78
2021/12/12 02:19:12;;;;;;;19.70;4.80;;;;;;;;;;4862000;29;20032;-77
2021/12/12 02:21:56;;;;;;;12.50;4.75;;;;;;;;;;4861883;29;20041;-77
2021/12/12 02:35:45;;;;;;;11.70;3.63;;;;;;;;;;4862318;29;20089;-77
2021/12/12 02:38:16;;;;;;;17.80;3.90;;;;;;;;;;4862195;29;20022;-77
2021/12/12 02:40:45;;;;;;;14.50;4.27;;;;;;;;;;4861461;29;20033;-77
2021/12/12 02:43:13;;;;;;;15.18;4.13;;;;;;;;;;4839336;29;20026;-77
2021/12/12 02:45:40;;;;;;;19.73;4.28;;;;;;;;;;4843215;29;20037;-77
2021/12/12 02:48:09;;;;;;;15.05;4.05;;;;;;;;;;4843619;29;20038;-77
2021/12/12 02:50:37;;;;;;;15.82;4.10;;;;;;;;;;4843191;29;20045;-77
2021/12/12 02:53:06;;;;;;;15.27;4.03;;;;;;;;;;4851018;29;20547;-77
2021/12/12 02:55:36;;;;;;;19.58;3.88;;;;;;;;;;4861696;29;20056;-77
2021/12/12 02:58:04;;;;;;;18.17;3.72;;;;;;;;;;4861645;29;20026;-77
2021/12/12 03:00:33;;;;;;;20.23;4.00;;;;;;;;;;4861656;29;20037;-77
2021/12/12 03:03:00;;;;;;;14.43;3.58;;;;;;;;;;4861419;29;20386;-77
2021/12/12 03:05:32;;;;;;;14.82;3.75;;;;;;;;;;4861902;29;20109;-77
2021/12/12 03:07:58;;;;;;;11.65;3.60;;;;;;;;;;4861358;29;20030;-77
2021/12/12 03:10:27;;;;;;;11.27;3.38;;;;;;;;;;4844524;29;20038;-77
2021/12/12 03:12:54;;;;;;;10.88;4.35;;;;;;;;;;4860848;29;20033;-77
2021/12/12 03:15:26;;;;;;;13.52;3.55;;;;;;;;;;4861633;29;20029;-77
2021/12/12 03:17:53;;;;;;;11.30;4.03;;;;;;;;;;4861166;29;20207;-77
2021/12/12 03:20:25;;;;;;;18.73;4.80;;;;;;;;;;4861202;29;20033;-78
2021/12/12 03:22:57;;;;;;;11.40;4.80;;;;;;;;;;4861108;29;20056;-78
2021/12/12 03:25:23;;;;;;;18.90;5.35;;;;;;;;;;4860777;29;20047;-77
2021/12/12 03:27:49;;;;;;;14.80;5.00;;;;;;;;;;4844450;29;20033;-77
2021/12/12 03:30:16;;;;;;;16.95;5.43;;;;;;;;;;4861128;29;20038;-77
2021/12/12 03:32:42;;;;;;;16.60;5.95;;;;;;;;;;4859914;29;20025;-77
2021/12/12 03:35:11;;;;;;;18.63;6.82;;;;;;;;;;4860940;29;20120;-77
2021/12/12 03:37:38;;;;;;;21.23;8.18;;;;;;;;;;4860912;29;20132;-77
2021/12/12 03:40:18;;;;;;;27.27;9.07;;;;;;;;;;4859724;29;20032;-77
2021/12/12 03:42:46;;;;;;;23.55;9.60;;;;;;;;;;4844182;29;20678;-77
2021/12/12 03:45:13;;;;;;;27.33;9.65;;;;;;;;;;4842793;29;20621;-77
2021/12/12 03:47:41;;;;;;;24.55;9.75;;;;;;;;;;4859799;29;20034;-78
2021/12/12 03:50:11;;;;;;;29.63;11.70;;;;;;;;;;4860603;29;20071;-77
2021/12/12 03:52:37;;;;;;;30.52;11.57;;;;;;;;;;4860461;29;20054;-77
2021/12/12 03:55:04;;;;;;;28.95;10.48;;;;;;;;;;4843560;29;20442;-77
2021/12/12 03:57:31;;;;;;;23.33;10.07;;;;;;;;;;4860985;29;20030;-77
2021/12/12 03:59:58;;;;;;;26.38;9.95;;;;;;;;;;4860193;29;20033;-77
2021/12/12 04:02:24;;;;;;;27.45;10.38;;;;;;;;;;4860300;29;20033;-77
2021/12/12 04:04:50;;;;;;;26.55;10.77;;;;;;;;;;4860047;29;20124;-77
2021/12/12 04:07:19;;;;;;;29.20;10.27;;;;;;;;;;4860294;29;20033;-77
2021/12/12 04:09:45;;;;;;;22.25;10.07;;;;;;;;;;4860379;29;20553;-77
2021/12/12 04:12:14;;;;;;;29.70;11.18;;;;;;;;;;4860307;29;20490;-77
2021/12/12 04:14:41;;;;;;;26.85;10.48;;;;;;;;;;4860186;29;20025;-78
2021/12/12 04:17:11;;;;;;;21.95;9.45;;;;;;;;;;4859876;29;20029;-77
2021/12/12 04:19:37;;;;;;;25.30;9.65;;;;;;;;;;4860054;29;20036;-77
2021/12/12 04:22:04;;;;;;;19.83;8.68;;;;;;;;;;4860117;29;20054;-77
2021/12/12 04:24:32;;;;;;;20.58;7.68;;;;;;;;;;4859275;29;20505;-77
2021/12/12 04:26:58;;;;;;;21.52;7.22;;;;;;;;;;4843257;29;20517;-77
2021/12/12 04:29:28;;;;;;;15.77;6.22;;;;;;;;;;4860367;29;20029;-77
2021/12/12 04:31:56;;;;;;;15.18;6.30;;;;;;;;;;4860221;29;20025;-77
2021/12/12 04:34:24;;;;;;;15.98;5.85;;;;;;;;;;4860093;29;20029;-77
2021/12/12 04:36:50;;;;;;;15.88;5.70;;;;;;;;;;4843179;29;20486;-77
2021/12/12 04:39:17;;;;;;;11.90;4.80;;;;;;;;;;4857726;29;20034;-77
2021/12/12 04:41:44;;;;;;;16.45;5.35;;;;;;;;;;4860054;29;20037;-77
2021/12/12 04:44:10;;;;;;;14.57;4.35;;;;;;;;;;4858635;29;20037;-77
2021/12/12 04:49:55;;;;;;;15.82;3.55;;;;;;;;;;4860250;29;20117;-77
2021/12/12 04:52:24;;;;;;;11.68;4.13;;;;;;;;;;4859634;29;20049;-78
2021/12/12 04:54:58;;;;;;;20.73;3.92;;;;;;;;;;4859645;29;20037;-77
2021/12/12 04:57:30;;;;;;;16.40;3.80;;;;;;;;;;4859540;29;20025;-77
2021/12/12 05:00:08;;;;;;;14.35;3.83;;;;;;;;;;4859687;29;20033;-77
2021/12/12 05:02:38;;;;;;;17.73;4.55;;;;;;;;;;4859491;29;20494;-77
2021/12/12 05:05:23;;;;;;;22.42;4.05;;;;;;;;;;4859814;29;20293;-78
2021/12/12 05:07:53;;;;;;;14.80;4.78;;;;;;;;;;4859362;29;20026;-77
2021/12/12 05:10:25;;;;;;;18.13;4.38;;;;;;;;;;4859024;29;20034;-77
2021/12/12 05:12:54;;;;;;;15.43;3.83;;;;;;;;;;4859315;29;20026;-78
2021/12/12 05:15:29;;;;;;;20.58;4.30;;;;;;;;;;4859526;29;20443;-77
2021/12/12 05:17:56;;;;;;;15.75;3.72;;;;;;;;;;4859337;29;20030;-77
2021/12/12 05:20:27;;;;;;;13.20;3.85;;;;;;;;;;4859839;29;20033;-77
2021/12/12 05:22:55;;;;;;;10.50;4.25;;;;;;;;;;4859127;29;20034;-77
2021/12/12 05:25:23;;;;;;;16.42;5.00;;;;;;;;;;4859591;29;20064;-77
2021/12/12 05:27:51;;;;;;;14.70;4.32;;;;;;;;;;4859499;29;20025;-77
2021/12/12 05:30:19;;;;;;;19.65;5.15;;;;;;;;;;4859618;29;20056;-77
2021/12/12 05:32:47;;;;;;;16.98;4.40;;;;;;;;;;4859825;29;20025;-77
2021/12/12 05:35:15;;;;;;;10.63;4.15;;;;;;;;;;4859109;29;20097;-77
2021/12/12 05:37:41;;;;;;;17.65;4.25;;;;;;;;;;4859483;29;20029;-77
2021/12/12 05:40:10;;;;;;;18.13;4.90;;;;;;;;;;4842219;29;20037;-77
2021/12/12 05:42:37;;;;;;;21.20;4.53;;;;;;;;;;4859331;29;20029;-77
2021/12/12 05:45:04;;;;;;;17.92;4.28;;;;;;;;;;4855104;29;20034;-77
2021/12/12 05:47:31;;;;;;;14.65;4.72;;;;;;;;;;4841238;29;20034;-77
2021/12/12 05:49:57;;;;;;;11.55;4.18;;;;;;;;;;4840486;29;20102;-77
2021/12/12 05:52:23;;;;;;;11.38;4.28;;;;;;;;;;4840476;29;20050;-78
2021/12/12 05:54:50;;;;;;;8.48;4.25;;;;;;;;;;4848263;29;20033;-77
2021/12/12 05:57:19;;;;;;;13.75;4.25;;;;;;;;;;4862423;29;20490;-77
2021/12/12 05:59:46;;;;;;;9.60;4.25;;;;;;;;;;4862866;29;20029;-77
2021/12/12 06:02:13;;;;;;;9.85;4.63;;;;;;;;;;4862347;29;20496;-77
2021/12/12 06:04:39;;;;;;;17.98;4.60;;;;;;;;;;4862418;29;20375;-77
2021/12/12 06:07:07;;;;;;;9.82;4.32;;;;;;;;;;4862227;29;20034;-77
2021/12/12 06:09:34;;;;;;;9.82;4.78;;;;;;;;;;4863104;29;20046;-77
2021/12/12 06:12:01;;;;;;;8.60;3.83;;;;;;;;;;4861921;29;20038;-78
2021/12/12 06:14:28;;;;;;;10.00;4.57;;;;;;;;;;4862519;29;20032;-77
2021/12/12 06:16:54;;;;;;;12.68;4.30;;;;;;;;;;4862578;29;20456;-77
2021/12/12 06:19:22;;;;;;;11.77;4.68;;;;;;;;;;4861840;29;20046;-77
2021/12/12 06:21:52;;;;;;;10.85;4.18;;;;;;;;;;4862417;29;20057;-77
2021/12/12 06:24:18;;;;;;;10.95;4.10;;;;;;;;;;4862289;29;20037;-77
2021/12/12 06:26:44;;;;;;;15.07;4.50;;;;;;;;;;4861880;29;20037;-77
2021/12/12 06:29:11;;;;;;;9.68;3.80;;;;;;;;;;4862467;29;20461;-77
2021/12/12 06:31:39;;;;;;;8.50;4.13;;;;;;;;;;4861797;29;20106;-77
2021/12/12 06:34:06;;;;;;;14.20;4.45;;;;;;;;;;4861533;29;20110;-77
2021/12/12 06:36:32;;;;;;;9.63;4.40;;;;;;;;;;4861880;29;20030;-77
2021/12/12 06:38:59;;;;;;;13.23;4.40;;;;;;;;;;4862197;29;20025;-77
2021/12/12 06:41:25;;;;;;;10.27;3.88;;;;;;;;;;4859935;29;20040;-77
2021/12/12 06:43:52;;;;;;;10.52;4.28;;;;;;;;;;4862041;29;20036;-77
2021/12/12 06:46:19;;;;;;;15.02;4.60;;;;;;;;;;4850238;29;20033;-77
2021/12/12 06:48:45;;;;;;;9.38;4.25;;;;;;;;;;4843089;29;20041;-77
2021/12/12 06:51:12;;;;;;;13.55;4.55;;;;;;;;;;4852268;29;20505;-77
2021/12/12 06:53:39;;;;;;;16.23;4.97;;;;;;;;;;4861711;29;20033;-77
2021/12/12 06:56:08;;;;;;;19.33;5.68;;;;;;;;;;4861339;29;20037;-77
2021/12/12 06:58:34;;;;;;;12.27;5.13;;;;;;;;;;4862212;29;20025;-77
2021/12/12 07:01:22;;;;;;;14.13;6.80;;;;;;;;;;4861583;29;20057;-77
2021/12/12 07:03:49;;;;;;;25.45;10.40;;;;;;;;;;4861336;29;20125;-77
2021/12/12 07:06:19;;;;;;;57.97;11.30;;;;;;;;;;4860427;29;20021;-79
2021/12/12 07:08:46;;;;;;;41.90;12.10;;;;;;;;;;4845544;29;20038;-77
2021/12/12 07:11:14;;;;;;;35.70;12.95;;;;;;;;;;4842646;29;20022;-77
2021/12/12 07:13:40;;;;;;;33.90;12.35;;;;;;;;;;4829336;29;20037;-78
2021/12/12 07:16:06;;;;;;;21.55;9.65;;;;;;;;;;4861041;29;20057;-77
2021/12/12 07:18:34;;;;;;;32.28;10.98;;;;;;;;;;4859443;29;20030;-78
2021/12/12 07:21:02;;;;;;;29.85;11.50;;;;;;;;;;4860679;29;20085;-77
2021/12/12 07:23:28;;;;;;;31.25;10.30;;;;;;;;;;4826315;29;20034;-77
2021/12/12 07:25:55;;;;;;;29.23;11.15;;;;;;;;;;4850483;29;20030;-77
2021/12/12 07:28:21;;;;;;;17.95;9.18;;;;;;;;;;4851335;29;20491;-77
2021/12/12 07:30:48;;;;;;;27.45;10.43;;;;;;;;;;4852963;29;20107;-77
2021/12/12 07:33:14;;;;;;;19.83;9.85;;;;;;;;;;4860619;29;20087;-77
2021/12/12 07:35:42;;;;;;;25.58;10.15;;;;;;;;;;4859883;29;20034;-77
2021/12/12 07:38:10;;;;;;;18.05;8.45;;;;;;;;;;4858971;29;20029;-77
2021/12/12 07:40:36;;;;;;;20.85;9.15;;;;;;;;;;4857287;29;20033;-77
2021/12/12 07:43:03;;;;;;;22.60;7.55;;;;;;;;;;4860078;29;20037;-77
2021/12/12 07:45:29;;;;;;;20.92;8.75;;;;;;;;;;4859320;29;20462;-77
2021/12/12 07:47:55;;;;;;;22.95;9.32;;;;;;;;;;4854760;29;20034;-77
2021/12/12 07:50:23;;;;;;;18.85;9.05;;;;;;;;;;4859418;29;20090;-83
2021/12/12 07:52:50;;;;;;;22.48;8.60;;;;;;;;;;4845901;29;20128;-77
2021/12/12 07:55:16;;;;;;;20.55;8.00;;;;;;;;;;4853227;29;20079;-77
2021/12/12 07:57:43;;;;;;;15.80;8.38;;;;;;;;;;4855468;29;20450;-77
2021/12/12 08:00:14;;;;;;;23.45;10.18;;;;;;;;;;4859449;29;20037;-78
2021/12/12 08:02:41;;;;;;;42.33;19.05;;;;;;;;;;4856231;29;20036;-79
2021/12/12 08:05:08;;;;;;;35.97;16.48;;;;;;;;;;4858437;29;20041;-78
2021/12/12 08:07:36;;;;;;;34.80;17.60;;;;;;;;;;4859283;29;20089;-77
2021/12/12 08:10:04;;;;;;;33.33;16.65;;;;;;;;;;4860226;29;20033;-76
2021/12/12 08:12:31;;;;;;;23.48;12.32;;;;;;;;;;4859441;29;20124;-78
2021/12/12 08:14:58;;;;;;;26.27;12.30;;;;;;;;;;4853520;29;20108;-82
2021/12/12 08:17:24;;;;;;;29.05;12.82;;;;;;;;;;4854656;29;20424;-77
2021/12/12 08:19:51;;;;;;;25.08;11.85;;;;;;;;;;4855814;29;20490;-78
2021/12/12 08:22:18;;;;;;;21.90;9.15;;;;;;;;;;4850431;29;20037;-78
2021/12/12 08:24:44;;;;;;;24.17;10.63;;;;;;;;;;4848452;29;20033;-77
2021/12/12 08:27:11;;;;;;;24.95;11.43;;;;;;;;;;4859326;29;20090;-77
2021/12/12 08:29:38;;;;;;;37.15;17.63;;;;;;;;;;4859579;29;20042;-78
2021/12/12 08:32:05;;;;;;;24.40;12.95;;;;;;;;;;4859156;29;20042;-78
2021/12/12 08:34:31;;;;;;;20.23;6.80;;;;;;;;;;4859873;29;20022;-77
2021/12/12 08:36:58;;;;;;;19.90;5.72;;;;;;;;;;4860198;29;20025;-77
2021/12/12 08:39:27;;;;;;;17.23;5.30;;;;;;;;;;4841358;29;20082;-77
2021/12/12 08:41:53;;;;;;;18.33;5.05;;;;;;;;;;4852729;29;20026;-76
2021/12/12 08:44:20;;;;;;;18.27;5.45;;;;;;;;;;4859255;29;20029;-77
2021/12/12 08:46:47;;;;;;;26.67;8.57;;;;;;;;;;4859055;29;20398;-82
2021/12/12 08:49:14;;;;;;;19.15;5.38;;;;;;;;;;4852950;29;20033;-77
2021/12/12 08:51:43;;;;;;;21.77;6.07;;;;;;;;;;4852457;29;20056;-76
2021/12/12 08:54:15;;;;;;;18.85;5.68;;;;;;;;;;4854232;29;20034;-77
2021/12/12 08:56:46;;;;;;;21.80;6.13;;;;;;;;;;4858505;29;20033;-77
2021/12/12 08:59:15;;;;;;;18.20;5.35;;;;;;;;;;4849488;29;20026;-77
2021/12/12 09:01:42;;;;;;;19.15;5.93;;;;;;;;;;4855491;29;20102;-76
2021/12/12 09:04:10;;;;;;;21.00;5.35;;;;;;;;;;4856813;29;20036;-77
2021/12/12 09:06:41;;;;;;;20.33;5.90;;;;;;;;;;4858575;29;20042;-77
2021/12/12 09:09:09;;;;;;;18.30;4.90;;;;;;;;;;4859401;29;20030;-77
2021/12/12 09:11:41;;;;;;;22.63;5.53;;;;;;;;;;4851013;29;20037;-76
2021/12/12 09:14:26;;;;;;;32.38;5.78;;;;;;;;;;4840577;29;20030;-77
2021/12/12 09:17:00;;;;;;;11.80;5.10;;;;;;;;;;4852473;29;20025;-77
2021/12/12 09:19:29;;;;;;;15.25;5.00;;;;;;;;;;4849272;29;20029;-77
2021/12/12 09:21:58;;;;;;;18.83;5.20;;;;;;;;;;4859425;29;20056;-76
2021/12/12 09:24:30;;;;;;;19.75;4.72;;;;;;;;;;4840334;29;20034;-77
2021/12/12 09:27:01;;;;;;;23.30;5.25;;;;;;;;;;4840295;29;20106;-77
2021/12/12 09:29:27;;;;;;;14.70;4.88;;;;;;;;;;4841936;29;20486;-77
2021/12/12 09:31:55;;;;;;;22.83;5.50;;;;;;;;;;4860663;29;20065;-77
2021/12/12 09:34:41;;;;;;;15.57;4.50;;;;;;;;;;4860766;29;20033;-78
2021/12/12 09:37:16;;;;;;;20.02;4.60;;;;;;;;;;4851627;29;20559;-77
2021/12/12 09:39:48;;;;;;;20.25;4.95;;;;;;;;;;4846932;29;20033;-77
2021/12/12 09:42:14;;;;;;;;;;;;;;;;;;4860440;29;20093;-77
2021/12/12 09:44:52;;;;;;;11.18;3.85;;;;;;;;;;4860658;29;20372;-77
2021/12/12 09:47:27;;;;;;;18.50;4.38;;;;;;;;;;4860412;29;20029;-78
2021/12/12 09:52:56;;;;;;;19.95;5.43;;;;;;;;;;4857331;29;20390;-79
2021/12/12 09:55:29;;;;;;;24.17;4.43;;;;;;;;;;4862293;29;20030;-77
2021/12/12 09:58:03;;;;;;;21.17;4.88;;;;;;;;;;4862145;29;20034;-77
2021/12/12 10:00:32;;;;;;;19.45;4.50;;;;;;;;;;4855033;29;20036;-79
2021/12/12 10:03:14;;;;;;;20.98;5.03;;;;;;;;;;4858719;29;20033;-79
2021/12/12 10:06:01;;;;;;;20.83;5.35;;;;;;;;;;4845438;29;20473;-79
2021/12/12 10:08:39;;;;;;;24.20;6.65;;;;;;;;;;4862622;29;20040;-79
2021/12/12 10:11:20;;;;;;;19.20;5.80;;;;;;;;;;4862137;29;20044;-79
2021/12/12 10:13:48;;;;;;;27.23;7.57;;;;;;;;;;4862116;29;20077;-79
2021/12/12 10:16:29;;;;;;;27.05;5.78;;;;;;;;;;4862110;29;20266;-79
2021/12/12 10:19:01;;;;;;;19.30;6.57;;;;;;;;;;4858323;29;20025;-79
2021/12/12 10:21:46;;;;;;;21.33;7.28;;;;;;;;;;4857545;29;20030;-79
2021/12/12 10:24:30;;;;;;;23.83;6.60;;;;;;;;;;4855036;29;20033;-79
2021/12/12 10:27:01;;;;;;;23.92;7.47;;;;;;;;;;4850970;29;20048;-79
2021/12/12 10:29:30;;;;;;;28.02;8.73;;;;;;;;;;4855467;29;20037;-79
2021/12/12 10:32:08;;;;;;;19.15;7.55;;;;;;;;;;4861186;29;20251;-79
2021/12/12 10:34:41;;;;;;;24.58;7.35;;;;;;;;;;4861477;29;20030;-77
2021/12/12 10:37:10;;;;;;;24.00;7.07;;;;;;;;;;4861831;29;20041;-78
2021/12/12 10:39:38;;;;;;;24.83;7.75;;;;;;;;;;4845066;29;20078;-78
2021/12/12 10:42:07;;;;;;;32.17;7.40;;;;;;;;;;4845155;29;20033;-77
2021/12/12 10:44:41;;;;;;;22.65;6.70;;;;;;;;;;4861650;29;20025;-78
2021/12/12 10:47:16;;;;;;;25.33;8.02;;;;;;;;;;4861348;29;20034;-82
2021/12/12 10:50:02;;;;;;;39.85;12.45;;;;;;;;;;4845519;29;20110;-78
2021/12/12 10:52:37;;;;;;;25.08;12.15;;;;;;;;;;4861108;29;20512;-79
2021/12/12 10:55:17;;;;;;;22.33;7.57;;;;;;;;;;4860914;29;20026;-78
2021/12/12 10:57:45;;;;;;;31.15;10.45;;;;;;;;;;4845702;29;20026;-76
2021/12/12 11:00:20;;;;;;;32.03;9.30;;;;;;;;;;4843980;29;20037;-77
2021/12/12 11:02:49;;;;;;;22.25;6.70;;;;;;;;;;4848067;29;20093;-82
2021/12/12 11:05:18;;;;;;;26.35;6.90;;;;;;;;;;4861531;29;20428;-78
2021/12/12 11:07:46;;;;;;;28.67;12.38;;;;;;;;;;4861717;29;20033;-77
2021/12/12 11:10:18;;;;;;;29.50;8.35;;;;;;;;;;4860933;29;20146;-78
2021/12/12 11:12:47;;;;;;;21.27;5.88;;;;;;;;;;4861177;29;20078;-78
2021/12/12 11:15:15;;;;;;;25.60;9.70;;;;;;;;;;4839879;29;20073;-78
2021/12/12 11:18:03;;;;;;;31.48;9.43;;;;;;;;;;4861555;29;20060;-78
2021/12/12 11:20:35;;;;;;;26.27;7.97;;;;;;;;;;4855534;29;20121;-79
2021/12/12 11:23:04;;;;;;;31.98;9.50;;;;;;;;;;4854850;29;20113;-78
2021/12/12 11:25:36;;;;;;;43.90;14.57;;;;;;;;;;4861241;29;20033;-76
2021/12/12 11:28:08;;;;;;;27.75;9.88;;;;;;;;;;4860112;29;20036;-77
2021/12/12 11:30:34;;;;;;;;;;;;;;;;;;4855915;29;20031;-77
2021/12/12 11:33:03;;;;;;;174.30;71.13;;;;;;;;;;4847760;29;19919;-77
2021/12/12 11:35:29;;;;;;;176.82;74.07;;;;;;;;;;4860957;29;20030;-77
2021/12/12 11:38:08;;;;;;;128.18;41.60;;;;;;;;;;4861190;29;20021;-77
2021/12/12 11:40:40;;;;;;;73.30;22.52;;;;;;;;;;4859803;29;20065;-79
2021/12/12 11:43:17;;;;;;;282.60;71.78;;;;;;;;;;4850653;29;20030;-78
2021/12/12 11:46:04;;;;;;;384.85;108.65;;;;;;;;;;4852879;29;20053;-78
2021/12/12 11:48:30;;;;;;;250.52;74.57;;;;;;;;;;4828892;29;20797;-79
2021/12/12 11:51:05;;;;;;;147.98;40.28;;;;;;;;;;4834872;29;20394;-79
2021/12/12 11:53:34;;;;;;;134.35;38.63;;;;;;;;;;4851200;29;20101;-79
2021/12/12 11:56:21;;;;;;;143.52;37.53;;;;;;;;;;4851816;29;20030;-79
2021/12/12 11:58:47;;;;;;;68.97;18.55;;;;;;;;;;4851217;29;20021;-80
2021/12/12 12:01:22;;;;;;;106.45;38.92;;;;;;;;;;4849185;29;20479;-79
2021/12/12 12:04:01;;;;;;;37.80;11.68;;;;;;;;;;4829788;29;20082;-79
2021/12/12 12:06:46;;;;;;;125.35;46.22;;;;;;;;;;4850199;29;20032;-79
2021/12/12 12:09:27;;;;;;;35.40;12.52;;;;;;;;;;4854095;29;20030;-77
2021/12/12 12:12:02;;;;;;;41.10;13.15;;;;;;;;;;4850810;29;20494;-77
2021/12/12 12:14:43;;;;;;;199.93;55.55;;;;;;;;;;4851941;29;20108;-78
2021/12/12 12:17:21;;;;;;;51.88;12.77;;;;;;;;;;4851210;29;20037;-77
2021/12/12 12:19:56;;;;;;;213.80;85.05;;;;;;;;;;4849606;29;20030;-77
2021/12/12 12:22:26;;;;;;;105.10;33.47;;;;;;;;;;4841677;29;20061;-77
2021/12/12 15:59:29;;;;;;;31.45;7.25;;;;;;;;;;5183716;23;20054;-78
2021/12/12 16:01:58;;;;;;;17.95;4.80;;;;;;;;;;4846763;29;20405;-79
2021/12/12 16:04:25;;;;;;;18.40;6.38;;;;;;;;;;4860775;29;20026;-78
2021/12/12 16:06:57;;;;;;;20.38;7.32;;;;;;;;;;4860868;29;20033;-78
2021/12/12 16:09:24;;;;;;;;;;;;;;;;;;4861559;29;20116;-77
2021/12/12 16:12:05;;;;;;;98.82;33.05;;;;;;;;;;4860685;29;19912;-77
2021/12/12 16:14:32;;;;;;;66.80;14.52;;;;;;;;;;4860437;29;20028;-78
2021/12/12 16:16:59;;;;;;;53.50;14.10;;;;;;;;;;4861083;29;20029;-78
2021/12/12 16:19:30;;;;;;;130.43;49.47;;;;;;;;;;4857971;29;20493;-77
2021/12/12 16:21:59;;;;;;;121.50;37.15;;;;;;;;;;4860683;29;20033;-77
2021/12/12 16:24:34;;;;;;;93.30;34.67;;;;;;;;;;4860778;29;20030;-77
2021/12/12 16:27:05;;;;;;;65.07;27.35;;;;;;;;;;4860929;29;20034;-77
2021/12/12 16:29:31;;;;;;;65.28;26.05;;;;;;;;;;4860220;29;20401;-77
2021/12/12 16:32:00;;;;;;;111.00;43.92;;;;;;;;;;4860994;29;20089;-77
2021/12/12 16:34:31;;;;;;;85.35;34.25;;;;;;;;;;4859328;29;20030;-76
2021/12/12 16:37:02;;;;;;;119.97;44.03;;;;;;;;;;4860863;29;20370;-77
2021/12/12 16:39:30;;;;;;;97.97;39.65;;;;;;;;;;4859193;29;20274;-77
2021/12/12 16:42:16;;;;;;;87.97;33.58;;;;;;;;;;4870009;29;20058;-77
2021/12/12 16:44:46;;;;;;;53.10;22.83;;;;;;;;;;4879143;29;20068;-78
2021/12/12 16:47:18;;;;;;;50.47;22.23;;;;;;;;;;4879475;29;20084;-78
2021/12/12 16:49:46;;;;;;;34.88;17.40;;;;;;;;;;4862145;29;20373;-78
2021/12/12 16:52:13;;;;;;;39.67;15.30;;;;;;;;;;4861275;29;20029;-78
2021/12/12 16:54:39;;;;;;;41.50;20.63;;;;;;;;;;4870471;29;20109;-78
2021/12/12 16:57:08;;;;;;;30.17;14.40;;;;;;;;;;4860359;29;20026;-78
2021/12/12 16:59:35;;;;;;;37.22;19.67;;;;;;;;;;4859021;29;20053;-78
2021/12/12 17:02:02;;;;;;;36.55;16.00;;;;;;;;;;4860128;29;20036;-77
2021/12/12 17:04:29;;;;;;;29.33;14.15;;;;;;;;;;4860398;29;20033;-78
2021/12/12 17:06:55;;;;;;;31.73;12.15;;;;;;;;;;4860557;29;20025;-77
2021/12/12 17:09:24;;;;;;;29.73;11.15;;;;;;;;;;4860372;29;20109;-77
2021/12/12 17:12:05;;;;;;;21.23;8.38;;;;;;;;;;4859886;29;20053;-77
2021/12/12 17:14:35;;;;;;;29.42;8.95;;;;;;;;;;4860603;29;20057;-79
2021/12/12 17:17:02;;;;;;;22.25;8.07;;;;;;;;;;4843565;29;20028;-80
2021/12/12 17:19:31;;;;;;;18.10;7.07;;;;;;;;;;4859500;29;20036;-78
2021/12/12 17:21:57;;;;;;;53.92;14.98;;;;;;;;;;4859602;29;20077;-79
2021/12/12 17:24:25;;;;;;;92.93;27.38;;;;;;;;;;4845888;29;20444;-77
2021/12/12 17:26:53;;;;;;;96.53;31.40;;;;;;;;;;4859040;29;20021;-77
2021/12/12 17:29:24;;;;;;;96.15;34.67;;;;;;;;;;4861710;29;20042;-79
2021/12/12 17:31:56;;;;;;;90.30;31.10;;;;;;;;;;4852722;29;20056;-80
2021/12/12 17:34:34;;;;;;;109.13;39.22;;;;;;;;;;4843647;29;20294;-77
2021/12/12 17:37:05;;;;;;;132.13;42.72;;;;;;;;;;4841916;29;20041;-80
2021/12/12 17:39:38;;;;;;;189.48;54.47;;;;;;;;;;4841594;29;20093;-81
2021/12/12 17:42:05;;;;;;;223.82;63.47;;;;;;;;;;4840098;29;20418;-81
2021/12/12 17:45:01;;;;;;;1123.30;438.40;;;;;;;;;;4841813;29;20482;-80
2021/12/12 17:47:41;;;;;;;1123.05;486.25;;;;;;;;;;4788388;29;20112;-78
2021/12/12 17:50:22;;;;;;;696.15;270.63;;;;;;;;;;4788561;29;20391;-80
2021/12/12 17:53:14;;;;;;;420.30;134.07;;;;;;;;;;4783891;30;20506;-80
2021/12/12 17:55:56;;;;;;;756.03;310.88;;;;;;;;;;4802353;29;20019;-81
2021/12/12 17:58:38;;;;;;;482.52;175.57;;;;;;;;;;4787673;29;20047;-78
2021/12/12 18:01:13;;;;;;;819.08;338.35;;;;;;;;;;4794035;29;20065;-80
2021/12/12 18:03:42;;;;;;;673.53;256.60;;;;;;;;;;4799868;29;20051;-80
2021/12/12 18:06:19;;;;;;;565.00;203.52;;;;;;;;;;4797931;29;20035;-80
2021/12/12 18:08:55;;;;;;;502.58;151.30;;;;;;;;;;4796437;29;20045;-79
2021/12/12 18:11:22;;;;;;;420.42;120.80;;;;;;;;;;4778069;29;20039;-80
2021/12/12 18:13:58;;;;;;;289.92;86.68;;;;;;;;;;4772938;30;20127;-79
2021/12/12 18:16:24;;;;;;;284.40;91.32;;;;;;;;;;4801610;29;20110;-82
2021/12/12 18:18:56;;;;;;;98.50;32.80;;;;;;;;;;4775379;30;20031;-80
2021/12/12 18:21:33;;;;;;;144.60;50.28;;;;;;;;;;4788319;29;20093;-80
2021/12/12 18:24:04;;;;;;;82.40;26.00;;;;;;;;;;4829912;29;20037;-81
2021/12/12 18:26:46;;;;;;;118.55;32.55;;;;;;;;;;4862888;29;20460;-80
2021/12/12 18:29:21;;;;;;;78.47;27.40;;;;;;;;;;4863118;29;20026;-82
2021/12/12 18:31:50;;;;;;;74.30;21.88;;;;;;;;;;4836768;29;20029;-80
2021/12/12 18:34:17;;;;;;;79.88;23.35;;;;;;;;;;4862183;29;20022;-81
2021/12/12 18:36:50;;;;;;;65.50;17.95;;;;;;;;;;4842395;29;20022;-80